TLL weather

Lennart Meri Tallinn Airport
Tallinn, Harju County, Estonia

Public forecast

Using degrees Celsius for public forecast. Weather courtesy of forecast.io.

Current aviation weather report (METAR) for Lennart Meri Tallinn Airport

Retrieved 2019/10/19 20:20 UTC (38 minutes ago):

EETN 192020Z 22007KT 9999 FEW014 SCT023 10/09 Q1012 NOSIG

Aviation forecast (TAF) for Lennart Meri Tallinn Airport

Retrieved 2019/10/19 22:03 UTC (0 seconds ago):

TAF COR TAF COR EETN 192200Z 1922/2018 22010KT 9999 BKN030 PROB40 TEMPO 1922/2010 BKN005 TEMPO 2000/2007 0500 BCFG BKN002 BECMG 2007/2009 16006KT TEMPO 2014/2018 5000 SHRA BKN010 SCT020CB